Time;durP1;ratioP1;P1;durP2;ratioP2;P2;SDS_P1;SDS_P2;PMS_P1;PMS_P2;Temp;Humidity;BMP_temperature;BMP_pressure;BME280_temperature;BME280_humidity;BME280_pressure;Samples;Min_cycle;Max_cycle;Signal;HPM_P1;HPM_P2
2023/07/16 00:00:41;;;;;;;3.93;3.23;;;19.60;99.90;;;;;;5030372;28;20449;-76
2023/07/16 00:03:07;;;;;;;5.73;3.53;;;19.60;99.90;;;;;;5036478;28;20468;-80
2023/07/16 00:05:38;;;;;;;4.93;4.13;;;19.40;99.90;;;;;;5038355;28;20479;-76
2023/07/16 00:08:05;;;;;;;4.00;3.47;;;19.40;99.90;;;;;;5034448;28;20451;-76
2023/07/16 00:10:36;;;;;;;5.37;3.57;;;19.30;99.90;;;;;;5043436;28;20521;-79
2023/07/16 00:13:03;;;;;;;3.67;3.30;;;19.40;99.90;;;;;;5032222;28;20469;-77
2023/07/16 00:15:31;;;;;;;3.50;2.73;;;19.40;99.90;;;;;;5032546;28;20465;-79
2023/07/16 00:17:58;;;;;;;9.60;4.07;;;19.40;99.90;;;;;;5040962;28;20529;-77
2023/07/16 00:20:25;;;;;;;5.27;3.13;;;19.30;99.90;;;;;;5037834;28;20489;-79
2023/07/16 00:22:55;;;;;;;5.00;4.33;;;19.40;99.90;;;;;;5041135;28;20933;-80
2023/07/16 00:25:22;;;;;;;5.30;3.63;;;19.40;99.90;;;;;;5042187;28;20902;-77
2023/07/16 00:27:49;;;;;;;4.10;3.70;;;19.50;99.90;;;;;;5039045;28;20511;-77
2023/07/16 00:30:16;;;;;;;7.27;4.00;;;19.50;99.90;;;;;;5040614;28;20549;-77
2023/07/16 00:32:43;;;;;;;7.80;4.47;;;19.60;99.90;;;;;;5040705;28;20526;-78
2023/07/16 00:35:10;;;;;;;7.23;4.10;;;19.60;99.90;;;;;;5045836;28;20524;-77
2023/07/16 00:37:37;;;;;;;5.50;3.23;;;19.60;99.90;;;;;;5045260;28;20476;-78
2023/07/16 00:40:07;;;;;;;7.00;5.33;;;19.70;99.90;;;;;;5048741;28;20499;-77
2023/07/16 00:42:34;;;;;;;9.23;4.43;;;19.70;99.90;;;;;;5040145;28;20478;-75
2023/07/16 00:45:02;;;;;;;4.83;4.17;;;19.70;99.90;;;;;;5053201;28;20520;-77
2023/07/16 00:47:29;;;;;;;6.37;3.50;;;19.70;99.90;;;;;;5058907;28;20458;-75
2023/07/16 00:49:56;;;;;;;3.80;3.37;;;19.50;99.90;;;;;;5054061;28;20486;-75
2023/07/16 00:52:24;;;;;;;7.50;3.93;;;19.50;99.90;;;;;;5049469;28;20527;-75
2023/07/16 00:54:51;;;;;;;6.00;3.90;;;19.50;99.90;;;;;;5044281;28;20470;-78
2023/07/16 00:57:20;;;;;;;7.70;4.00;;;19.50;99.90;;;;;;5032603;28;20479;-78
2023/07/16 00:59:46;;;;;;;7.10;3.73;;;19.50;99.90;;;;;;5038317;28;20459;-78
2023/07/16 01:02:13;;;;;;;4.57;3.97;;;19.50;99.90;;;;;;5036514;28;20529;-77
2023/07/16 01:04:40;;;;;;;3.40;3.10;;;19.60;99.90;;;;;;5034181;28;20771;-75
2023/07/16 01:07:12;;;;;;;3.37;3.07;;;19.50;99.90;;;;;;5045381;28;20553;-75
2023/07/16 01:09:42;;;;;;;4.47;3.30;;;19.50;99.90;;;;;;5031289;28;20531;-77
2023/07/16 01:12:13;;;;;;;6.53;5.33;;;19.50;99.90;;;;;;5040623;28;20522;-76
2023/07/16 01:14:42;;;;;;;6.00;4.00;;;19.50;99.90;;;;;;5040081;28;20487;-77
2023/07/16 01:17:10;;;;;;;4.90;3.80;;;19.50;99.90;;;;;;5043948;28;20434;-80
2023/07/16 01:19:37;;;;;;;6.60;4.70;;;19.40;99.90;;;;;;5043947;28;20445;-80
2023/07/16 01:22:28;;;;;;;4.40;3.13;;;19.40;99.90;;;;;;5036987;28;20483;-79
2023/07/16 01:25:10;;;;;;;3.30;3.00;;;19.40;99.90;;;;;;5036145;28;20481;-78
2023/07/16 01:28:17;;;;;;;5.50;3.53;;;19.40;99.90;;;;;;5024333;28;20546;-78
2023/07/16 01:30:47;;;;;;;6.60;2.80;;;19.40;99.90;;;;;;5035881;28;20484;-78
2023/07/16 01:33:16;;;;;;;3.73;3.30;;;19.40;99.90;;;;;;5031946;28;20467;-81
2023/07/16 01:35:44;;;;;;;6.23;3.97;;;19.40;99.90;;;;;;5037499;28;20475;-80
2023/07/16 01:38:13;;;;;;;5.03;3.90;;;19.30;99.90;;;;;;5037874;28;20447;-79
2023/07/16 01:40:40;;;;;;;5.00;3.20;;;19.20;99.90;;;;;;5037469;28;20448;-78
2023/07/16 01:43:06;;;;;;;6.60;4.13;;;19.20;99.90;;;;;;5047116;28;20538;-77
2023/07/16 01:45:34;;;;;;;8.23;4.13;;;19.10;99.90;;;;;;5042997;28;20573;-79
2023/07/16 01:48:14;;;;;;;9.23;3.27;;;19.20;99.90;;;;;;5044993;28;20438;-78
2023/07/16 01:50:42;;;;;;;5.70;3.47;;;19.10;99.90;;;;;;5019081;28;21355;-78
2023/07/16 01:53:09;;;;;;;4.57;3.30;;;19.10;99.90;;;;;;5033727;28;20467;-81
2023/07/16 01:55:35;;;;;;;8.13;3.80;;;19.10;99.90;;;;;;5046314;28;20435;-80
2023/07/16 01:58:03;;;;;;;8.23;4.20;;;19.20;99.90;;;;;;5040519;28;20525;-82
2023/07/16 02:00:29;;;;;;;5.70;3.40;;;19.10;99.90;;;;;;5040140;28;20504;-81
2023/07/16 02:02:56;;;;;;;4.03;3.63;;;19.10;99.90;;;;;;5036951;28;20483;-78
2023/07/16 02:05:24;;;;;;;6.50;4.33;;;19.00;99.90;;;;;;5047346;28;20474;-78
2023/07/16 02:07:51;;;;;;;6.87;4.27;;;19.00;99.90;;;;;;5039392;28;20847;-80
2023/07/16 02:10:18;;;;;;;9.57;4.03;;;19.00;99.90;;;;;;5048989;28;20442;-79
2023/07/16 02:12:49;;;;;;;6.43;3.23;;;18.90;99.90;;;;;;5040313;28;20455;-80
2023/07/16 02:15:17;;;;;;;5.50;3.47;;;18.80;99.90;;;;;;5044098;28;20829;-80
2023/07/16 02:17:44;;;;;;;4.30;3.40;;;18.80;99.90;;;;;;5042859;28;20458;-79
2023/07/16 02:20:12;;;;;;;5.70;3.83;;;18.90;99.90;;;;;;5035127;28;20870;-79
2023/07/16 02:22:40;;;;;;;4.50;4.10;;;18.80;99.90;;;;;;5040027;28;20577;-76
2023/07/16 02:25:13;;;;;;;5.43;3.57;;;18.90;99.90;;;;;;5036362;28;20431;-78
2023/07/16 02:27:40;;;;;;;7.30;4.10;;;18.90;99.90;;;;;;5048134;28;20559;-77
2023/07/16 02:30:08;;;;;;;3.93;3.50;;;18.90;99.90;;;;;;5043254;28;20450;-80
2023/07/16 02:32:35;;;;;;;7.80;3.27;;;18.90;99.90;;;;;;5036882;28;20453;-78
2023/07/16 02:35:03;;;;;;;8.40;3.93;;;18.90;99.90;;;;;;5037713;28;20453;-82
2023/07/16 02:37:30;;;;;;;6.73;3.53;;;18.90;99.90;;;;;;5037303;28;20587;-80
2023/07/16 02:39:59;;;;;;;7.50;4.53;;;18.90;99.90;;;;;;5039361;28;20450;-78
2023/07/16 02:42:26;;;;;;;8.73;3.17;;;19.00;99.90;;;;;;5050182;28;20445;-81
2023/07/16 02:44:53;;;;;;;8.97;4.10;;;19.00;99.90;;;;;;5044187;28;20467;-80
2023/07/16 02:47:20;;;;;;;12.73;4.80;;;19.00;99.90;;;;;;5041277;28;20559;-79
2023/07/16 02:49:47;;;;;;;6.93;3.70;;;19.00;99.90;;;;;;5043864;28;20447;-78
2023/07/16 02:52:14;;;;;;;5.00;3.40;;;18.90;99.90;;;;;;5042035;28;20444;-79
2023/07/16 02:54:41;;;;;;;7.83;4.10;;;18.80;99.90;;;;;;5043561;28;20488;-78
2023/07/16 02:57:09;;;;;;;7.37;5.40;;;18.80;99.90;;;;;;5039380;28;20537;-81
2023/07/16 02:59:36;;;;;;;10.73;6.37;;;18.70;99.90;;;;;;5041013;28;20475;-77
2023/07/16 03:02:04;;;;;;;8.30;4.37;;;18.70;99.90;;;;;;5038807;28;21000;-79
2023/07/16 03:04:31;;;;;;;7.60;4.10;;;18.70;99.90;;;;;;5038979;28;20778;-79
2023/07/16 03:06:59;;;;;;;8.50;4.60;;;18.70;99.90;;;;;;5046264;28;21011;-79
2023/07/16 03:09:26;;;;;;;6.50;4.83;;;18.70;99.90;;;;;;5039313;28;20531;-79
2023/07/16 03:11:53;;;;;;;6.07;4.67;;;18.70;99.90;;;;;;5043581;28;20525;-78
2023/07/16 03:14:22;;;;;;;6.43;4.40;;;18.60;99.90;;;;;;5037745;28;20475;-78
2023/07/16 03:16:49;;;;;;;9.30;5.07;;;18.70;99.90;;;;;;5039934;28;20522;-80
2023/07/16 03:19:16;;;;;;;8.27;4.67;;;18.70;99.90;;;;;;5038419;28;20527;-78
2023/07/16 03:21:43;;;;;;;8.80;4.33;;;18.70;99.90;;;;;;5042308;28;20449;-80
2023/07/16 03:24:10;;;;;;;9.30;4.80;;;18.80;99.90;;;;;;5044060;28;20541;-80
2023/07/16 03:26:36;;;;;;;5.73;3.87;;;18.80;99.90;;;;;;5044060;28;20573;-77
2023/07/16 03:29:03;;;;;;;6.43;4.30;;;18.80;99.90;;;;;;5042188;28;20504;-80
2023/07/16 03:31:32;;;;;;;6.67;3.97;;;18.80;99.90;;;;;;5045799;28;20477;-78
2023/07/16 03:33:58;;;;;;;7.20;4.87;;;18.90;99.90;;;;;;5048492;28;20497;-79
2023/07/16 03:36:25;;;;;;;8.30;4.70;;;18.90;99.90;;;;;;5037079;28;20523;-77
2023/07/16 03:38:52;;;;;;;7.80;4.60;;;18.90;99.90;;;;;;5043268;28;20442;-77
2023/07/16 03:41:19;;;;;;;10.00;4.50;;;18.80;99.90;;;;;;5041847;28;20465;-78
2023/07/16 03:43:46;;;;;;;9.63;4.23;;;18.90;99.90;;;;;;5045370;28;20470;-76
2023/07/16 03:46:13;;;;;;;8.03;5.03;;;18.90;99.90;;;;;;5042932;28;20518;-77
2023/07/16 03:48:41;;;;;;;11.73;5.43;;;18.80;99.90;;;;;;5041576;28;20461;-78
2023/07/16 03:51:08;;;;;;;12.53;5.90;;;18.80;99.90;;;;;;5041538;28;20455;-77
2023/07/16 03:53:35;;;;;;;6.60;4.60;;;18.80;99.90;;;;;;5041251;28;20466;-77
2023/07/16 03:56:02;;;;;;;6.87;4.70;;;18.80;99.90;;;;;;5045751;28;20526;-76
2023/07/16 03:58:29;;;;;;;9.17;4.20;;;18.80;99.90;;;;;;5049771;28;20446;-77
2023/07/16 04:00:57;;;;;;;8.90;4.20;;;18.80;99.90;;;;;;5043605;28;20455;-78
2023/07/16 04:03:24;;;;;;;10.17;6.20;;;18.80;99.90;;;;;;5040439;28;20500;-78
2023/07/16 04:05:52;;;;;;;10.13;4.47;;;18.80;99.90;;;;;;5043601;28;21012;-79
2023/07/16 04:08:19;;;;;;;9.57;4.70;;;18.80;99.90;;;;;;5032502;28;20519;-77
2023/07/16 04:10:46;;;;;;;6.30;4.10;;;18.80;99.90;;;;;;5043642;28;20533;-77
2023/07/16 04:13:13;;;;;;;12.50;4.40;;;18.80;99.90;;;;;;5035753;28;20489;-76
2023/07/16 04:15:40;;;;;;;9.67;4.07;;;18.80;99.90;;;;;;5038751;28;20501;-76
2023/07/16 04:18:06;;;;;;;7.23;4.13;;;18.80;99.90;;;;;;5039505;28;20461;-77
2023/07/16 04:20:34;;;;;;;9.00;3.30;;;18.80;99.90;;;;;;5041636;28;20441;-78
2023/07/16 04:23:02;;;;;;;7.83;4.70;;;18.70;99.90;;;;;;5041191;28;20469;-77
2023/07/16 04:25:29;;;;;;;5.63;4.50;;;18.70;99.90;;;;;;5042830;28;20447;-78
2023/07/16 04:27:57;;;;;;;5.30;3.50;;;18.80;99.90;;;;;;5046908;28;20489;-77
2023/07/16 04:30:24;;;;;;;8.80;4.93;;;18.80;99.90;;;;;;5040867;28;20451;-76
2023/07/16 04:32:51;;;;;;;9.40;4.13;;;18.80;99.90;;;;;;5041219;28;20528;-76
2023/07/16 04:35:18;;;;;;;8.13;4.70;;;19.20;99.90;;;;;;5039940;28;20496;-77
2023/07/16 04:37:45;;;;;;;6.00;3.70;;;19.80;99.90;;;;;;5041876;28;20449;-78
2023/07/16 04:40:13;;;;;;;4.30;3.07;;;20.50;99.90;;;;;;5040213;28;20491;-76
2023/07/16 04:42:40;;;;;;;10.20;4.30;;;21.30;99.90;;;;;;5038379;28;20521;-76
2023/07/16 04:45:08;;;;;;;5.80;2.60;;;22.10;99.90;;;;;;5033676;28;20444;-76
2023/07/16 04:47:35;;;;;;;7.60;3.20;;;22.50;99.90;;;;;;5043302;28;20482;-78
2023/07/16 04:50:02;;;;;;;5.17;3.00;;;22.50;99.90;;;;;;5040231;28;20446;-76
2023/07/16 04:52:29;;;;;;;7.30;2.90;;;22.60;99.90;;;;;;5043427;28;20921;-77
2023/07/16 04:54:56;;;;;;;3.90;2.73;;;23.30;99.90;;;;;;5039895;28;20558;-75
2023/07/16 04:57:26;;;;;;;7.73;3.27;;;23.80;99.90;;;;;;5036972;28;20474;-76
2023/07/16 04:59:53;;;;;;;4.40;2.30;;;24.10;99.90;;;;;;5041726;28;20528;-76
2023/07/16 05:02:20;;;;;;;5.20;3.00;;;24.70;99.90;;;;;;5032143;28;20438;-78
2023/07/16 05:04:47;;;;;;;6.47;3.20;;;25.10;99.90;;;;;;5037293;28;20827;-77
2023/07/16 05:07:14;;;;;;;5.63;2.97;;;25.40;99.90;;;;;;5041176;28;20486;-78
2023/07/16 05:09:42;;;;;;;2.40;2.00;;;25.80;99.90;;;;;;5038808;28;20534;-78
2023/07/16 05:12:10;;;;;;;7.23;3.07;;;25.60;99.90;;;;;;5045171;28;20442;-78
2023/07/16 05:14:46;;;;;;;5.83;2.43;;;25.60;99.90;;;;;;5037686;28;20470;-76
2023/07/16 05:17:14;;;;;;;5.23;2.60;;;25.90;99.90;;;;;;5040221;28;20452;-75
2023/07/16 05:19:41;;;;;;;5.40;3.43;;;26.40;99.90;;;;;;5033593;28;20530;-76
2023/07/16 05:22:08;;;;;;;7.23;2.97;;;26.80;99.90;;;;;;5039167;28;20561;-76
2023/07/16 05:24:35;;;;;;;7.03;3.27;;;27.20;99.90;;;;;;5045853;28;20465;-77
2023/07/16 05:27:02;;;;;;;7.43;3.83;;;27.30;99.90;;;;;;5040684;28;20481;-78
2023/07/16 05:29:29;;;;;;;5.10;2.60;;;27.50;99.20;;;;;;5041356;28;20530;-77
2023/07/16 05:31:57;;;;;;;6.07;2.90;;;27.40;98.10;;;;;;5039109;28;20490;-78
2023/07/16 05:34:24;;;;;;;6.30;3.10;;;27.50;98.10;;;;;;5036208;28;20551;-76
2023/07/16 05:36:54;;;;;;;5.83;2.90;;;27.70;98.20;;;;;;5040388;28;20521;-74
2023/07/16 05:39:21;;;;;;;6.47;2.93;;;27.50;95.90;;;;;;5045950;28;20526;-75
2023/07/16 05:41:48;;;;;;;6.70;2.80;;;26.40;96.90;;;;;;5047649;28;20454;-75
2023/07/16 05:44:15;;;;;;;6.47;2.53;;;26.40;98.30;;;;;;5042274;28;20469;-75
2023/07/16 05:46:42;;;;;;;5.00;2.60;;;26.80;98.20;;;;;;5044472;28;21004;-75
2023/07/16 05:49:11;;;;;;;7.63;2.77;;;27.10;97.00;;;;;;5043427;28;20534;-76
2023/07/16 05:51:38;;;;;;;6.47;3.10;;;27.50;95.80;;;;;;5041053;28;20442;-76
2023/07/16 05:54:05;;;;;;;6.80;3.70;;;28.20;94.50;;;;;;5044285;28;20555;-76
2023/07/16 05:56:31;;;;;;;13.73;6.83;;;27.90;93.80;;;;;;5041528;28;20549;-76
2023/07/16 05:58:58;;;;;;;7.70;3.20;;;28.10;94.10;;;;;;5045814;28;21027;-77
2023/07/16 06:01:25;;;;;;;7.57;3.00;;;28.10;92.80;;;;;;5038464;28;20477;-75
2023/07/16 06:03:53;;;;;;;11.40;3.53;;;28.00;93.30;;;;;;5041416;28;20831;-75
2023/07/16 06:06:21;;;;;;;6.77;2.70;;;27.90;93.80;;;;;;5041568;28;20485;-78
2023/07/16 06:08:49;;;;;;;7.90;3.40;;;28.40;93.20;;;;;;5041271;28;20530;-78
2023/07/16 06:11:16;;;;;;;6.10;3.27;;;28.90;91.40;;;;;;5038317;28;21010;-74
2023/07/16 06:13:43;;;;;;;8.03;6.63;;;28.70;92.20;;;;;;5037023;28;20502;-73
2023/07/16 06:16:09;;;;;;;13.40;3.13;;;28.80;91.40;;;;;;5041708;28;20457;-72
2023/07/16 06:18:36;;;;;;;10.67;5.00;;;28.80;91.40;;;;;;5045828;28;20836;-73
2023/07/16 06:21:04;;;;;;;10.00;3.63;;;29.10;91.20;;;;;;5039318;28;20449;-73
2023/07/16 06:23:32;;;;;;;6.50;4.00;;;29.20;90.80;;;;;;5037417;28;20967;-74
2023/07/16 06:25:59;;;;;;;12.53;9.03;;;29.40;90.50;;;;;;5040134;28;20521;-75
2023/07/16 06:28:28;;;;;;;5.53;2.90;;;29.00;90.80;;;;;;5030367;28;20514;-75
2023/07/16 06:30:55;;;;;;;5.90;3.93;;;29.70;90.10;;;;;;5040517;28;20439;-75
2023/07/16 06:33:22;;;;;;;7.90;3.50;;;28.60;89.70;;;;;;5040630;28;20557;-74
2023/07/16 06:35:49;;;;;;;10.83;5.17;;;28.20;90.60;;;;;;5039617;28;20573;-74
2023/07/16 06:38:16;;;;;;;9.60;3.50;;;28.80;91.70;;;;;;5038250;28;20489;-74
2023/07/16 06:40:49;;;;;;;9.27;4.60;;;29.20;90.00;;;;;;5043678;28;20493;-73
2023/07/16 06:43:15;;;;;;;7.53;5.43;;;29.40;89.70;;;;;;5042874;28;20472;-74
2023/07/16 06:45:42;;;;;;;5.03;3.00;;;29.50;89.10;;;;;;5048285;28;20471;-74
2023/07/16 06:48:09;;;;;;;7.87;4.30;;;28.80;89.20;;;;;;5044973;28;20560;-73
2023/07/16 06:50:36;;;;;;;6.60;4.13;;;29.00;90.50;;;;;;5036914;28;20541;-76
2023/07/16 06:53:03;;;;;;;8.80;4.80;;;29.10;90.30;;;;;;5034405;28;20550;-74
2023/07/16 06:55:30;;;;;;;7.27;5.10;;;29.20;90.10;;;;;;5041196;28;20501;-73
2023/07/16 06:57:59;;;;;;;4.80;2.70;;;29.10;90.40;;;;;;5042164;28;20467;-74
2023/07/16 07:00:26;;;;;;;5.10;3.80;;;28.70;90.60;;;;;;5038972;28;20529;-74
2023/07/16 07:02:54;;;;;;;7.47;3.57;;;28.00;91.50;;;;;;5048757;28;20504;-73
2023/07/16 07:05:21;;;;;;;5.13;3.03;;;28.00;92.40;;;;;;5040780;28;20445;-74
2023/07/16 07:07:48;;;;;;;6.73;3.93;;;27.60;92.40;;;;;;5040607;28;20486;-74
2023/07/16 07:10:15;;;;;;;5.10;3.70;;;27.00;93.50;;;;;;5026743;28;20534;-74
2023/07/16 07:12:42;;;;;;;4.63;4.03;;;25.90;95.70;;;;;;5035731;28;20509;-73
2023/07/16 07:15:10;;;;;;;7.20;5.13;;;25.50;97.90;;;;;;5042056;28;20459;-75
2023/07/16 07:17:37;;;;;;;7.70;6.10;;;24.40;99.60;;;;;;5042938;28;20568;-75
2023/07/16 07:20:06;;;;;;;6.50;5.93;;;23.50;99.90;;;;;;5035466;28;20480;-73
2023/07/16 07:22:33;;;;;;;7.20;5.90;;;23.20;99.90;;;;;;5039630;28;20497;-75
2023/07/16 07:25:00;;;;;;;6.30;5.70;;;23.10;99.90;;;;;;5041423;28;20510;-75
2023/07/16 07:27:27;;;;;;;12.00;5.50;;;22.80;99.90;;;;;;5047459;28;20484;-74
2023/07/16 07:29:55;;;;;;;8.57;5.00;;;23.20;99.90;;;;;;5039069;28;20538;-73
2023/07/16 07:32:24;;;;;;;6.57;4.40;;;24.60;99.90;;;;;;5045051;28;20451;-75
2023/07/16 07:34:51;;;;;;;5.73;3.90;;;26.10;98.00;;;;;;5039368;28;20550;-73
2023/07/16 07:37:18;;;;;;;6.53;4.70;;;26.80;93.70;;;;;;5046089;28;20434;-73
2023/07/16 07:39:47;;;;;;;6.13;4.83;;;27.20;91.30;;;;;;5037473;28;20609;-73
2023/07/16 07:42:14;;;;;;;8.70;5.20;;;27.10;90.70;;;;;;5039255;28;20446;-72
2023/07/16 07:44:41;;;;;;;7.93;5.57;;;26.40;91.20;;;;;;5033468;28;20586;-74
2023/07/16 07:47:09;;;;;;;5.43;4.43;;;25.50;92.60;;;;;;5046472;28;20478;-74
2023/07/16 07:49:37;;;;;;;6.73;5.00;;;25.80;92.30;;;;;;5038958;28;20463;-73
2023/07/16 07:52:05;;;;;;;9.03;4.87;;;25.10;93.00;;;;;;5040435;28;20530;-73
2023/07/16 07:54:33;;;;;;;6.73;5.70;;;24.70;94.00;;;;;;5037609;28;20509;-74
2023/07/16 07:57:04;;;;;;;6.50;4.93;;;24.40;94.20;;;;;;5037422;28;20451;-74
2023/07/16 07:59:31;;;;;;;6.43;4.33;;;24.20;95.20;;;;;;5031457;28;20797;-73
2023/07/16 08:02:01;;;;;;;8.73;4.40;;;25.00;94.40;;;;;;5036396;28;20538;-74
2023/07/16 08:04:28;;;;;;;8.93;4.67;;;26.00;93.80;;;;;;5045783;28;20890;-73
2023/07/16 08:06:56;;;;;;;6.37;3.80;;;27.20;92.40;;;;;;5037013;28;20533;-72
2023/07/16 08:09:23;;;;;;;7.13;3.60;;;27.20;89.80;;;;;;5041189;28;20805;-73
2023/07/16 08:11:50;;;;;;;6.47;3.97;;;26.70;88.90;;;;;;5038638;28;20478;-74
2023/07/16 08:14:17;;;;;;;6.13;4.47;;;26.80;89.60;;;;;;5041360;28;20464;-75
2023/07/16 08:16:44;;;;;;;11.93;4.70;;;26.40;90.40;;;;;;5038931;28;20505;-72
2023/07/16 08:19:11;;;;;;;8.23;4.63;;;26.30;90.90;;;;;;5038672;28;20438;-75
2023/07/16 08:21:38;;;;;;;9.60;4.90;;;25.80;91.00;;;;;;5037010;28;20542;-75
2023/07/16 08:24:07;;;;;;;11.00;4.53;;;25.60;91.60;;;;;;5038487;28;20843;-73
2023/07/16 08:26:34;;;;;;;6.33;4.23;;;25.40;91.90;;;;;;5039335;28;20450;-71
2023/07/16 08:29:02;;;;;;;8.83;3.97;;;25.00;91.40;;;;;;5034101;28;20487;-73
2023/07/16 08:31:29;;;;;;;6.10;3.80;;;24.40;91.40;;;;;;5045349;28;20451;-71
2023/07/16 08:33:56;;;;;;;6.90;3.80;;;24.80;91.90;;;;;;5042546;28;20806;-73
2023/07/16 08:36:23;;;;;;;7.40;3.57;;;25.50;90.60;;;;;;5040106;28;20571;-73
2023/07/16 08:38:50;;;;;;;30.07;5.63;;;26.40;89.20;;;;;;5038723;28;20444;-72
2023/07/16 08:41:18;;;;;;;8.00;4.60;;;27.20;86.30;;;;;;5036810;28;20525;-71
2023/07/16 08:43:47;;;;;;;7.20;4.23;;;26.90;86.10;;;;;;5033213;28;20462;-74
2023/07/16 08:46:15;;;;;;;10.40;4.33;;;26.80;87.30;;;;;;5035204;28;20450;-73
2023/07/16 08:48:43;;;;;;;6.53;4.70;;;27.40;87.30;;;;;;5035701;28;20474;-73
2023/07/16 08:51:11;;;;;;;8.30;4.33;;;27.70;85.70;;;;;;5037011;28;20446;-72
2023/07/16 08:53:39;;;;;;;7.30;4.70;;;27.40;86.40;;;;;;5041271;28;21000;-74
2023/07/16 08:56:06;;;;;;;7.43;5.20;;;27.00;88.00;;;;;;5040772;28;20463;-72
2023/07/16 08:58:34;;;;;;;8.30;5.40;;;26.70;88.40;;;;;;5035789;28;20466;-71
2023/07/16 09:01:18;;;;;;;8.70;5.07;;;26.00;88.90;;;;;;5043539;28;20879;-75
2023/07/16 09:03:45;;;;;;;7.50;4.80;;;25.60;89.10;;;;;;5036381;28;20833;-72
2023/07/16 09:06:12;;;;;;;7.80;4.70;;;25.80;90.20;;;;;;5043203;28;20446;-75
2023/07/16 09:08:40;;;;;;;6.60;4.60;;;26.10;89.50;;;;;;5027959;28;20570;-73
2023/07/16 09:11:12;;;;;;;6.37;4.40;;;25.90;89.00;;;;;;5035115;28;20443;-71
2023/07/16 09:13:45;;;;;;;6.80;4.37;;;25.90;89.90;;;;;;5034907;28;20471;-73
2023/07/16 09:16:12;;;;;;;5.13;4.23;;;25.70;88.70;;;;;;5042204;28;20462;-74
2023/07/16 09:18:45;;;;;;;7.07;5.03;;;25.80;88.70;;;;;;5037930;28;20439;-75
2023/07/16 09:21:12;;;;;;;7.77;4.20;;;25.60;88.70;;;;;;5041277;28;20450;-75
2023/07/16 09:23:41;;;;;;;6.50;4.37;;;25.60;88.70;;;;;;5036119;28;20464;-75
2023/07/16 09:26:08;;;;;;;5.03;4.53;;;25.90;88.70;;;;;;5040357;28;20443;-73
2023/07/16 09:28:36;;;;;;;9.37;4.80;;;26.20;87.10;;;;;;5041012;28;20549;-75
2023/07/16 09:31:08;;;;;;;6.10;4.60;;;26.40;85.70;;;;;;5034384;28;20443;-74
2023/07/16 09:33:36;;;;;;;6.97;4.70;;;25.90;86.00;;;;;;5036228;28;20528;-71
2023/07/16 09:36:05;;;;;;;8.70;4.43;;;25.30;87.00;;;;;;5031052;28;20531;-71
2023/07/16 09:38:34;;;;;;;9.20;5.20;;;25.40;88.70;;;;;;5041410;28;20439;-75
2023/07/16 09:41:03;;;;;;;6.80;4.60;;;25.20;87.70;;;;;;5040734;28;20816;-73
2023/07/16 09:43:30;;;;;;;9.20;5.30;;;24.80;88.40;;;;;;5036320;28;20475;-73
2023/07/16 09:45:58;;;;;;;8.83;4.60;;;24.40;89.60;;;;;;5042512;28;20461;-72
2023/07/16 09:48:27;;;;;;;10.20;4.13;;;24.00;90.10;;;;;;5037650;28;20569;-74
2023/07/16 09:50:55;;;;;;;7.10;4.40;;;23.40;90.30;;;;;;5043936;28;20446;-72
2023/07/16 09:53:22;;;;;;;8.13;3.73;;;23.40;91.10;;;;;;5038607;28;20897;-75
2023/07/16 09:55:49;;;;;;;6.17;4.37;;;23.10;90.90;;;;;;5034547;28;20549;-73
2023/07/16 09:58:20;;;;;;;7.20;4.43;;;23.60;91.40;;;;;;5036869;28;20973;-73
2023/07/16 10:00:49;;;;;;;11.40;4.90;;;24.60;90.90;;;;;;5040400;28;20465;-75
2023/07/16 10:03:17;;;;;;;7.73;4.60;;;24.90;90.10;;;;;;5040219;28;20502;-73
2023/07/16 10:05:46;;;;;;;7.33;4.77;;;25.30;89.10;;;;;;5040096;28;20442;-73
2023/07/16 10:08:20;;;;;;;13.70;4.70;;;25.00;89.30;;;;;;5034949;28;20556;-76
2023/07/16 10:10:49;;;;;;;9.67;5.33;;;24.40;89.10;;;;;;5036103;28;20484;-73
2023/07/16 10:13:16;;;;;;;6.90;4.13;;;24.50;89.70;;;;;;5041816;28;20469;-75
2023/07/16 10:15:53;;;;;;;6.20;4.50;;;24.70;90.20;;;;;;5036171;28;20480;-75
2023/07/16 10:18:30;;;;;;;6.33;4.03;;;24.70;89.20;;;;;;5044582;28;20429;-73
2023/07/16 10:21:05;;;;;;;5.87;3.80;;;24.20;90.30;;;;;;5039709;28;20435;-74
2023/07/16 10:23:40;;;;;;;7.50;4.20;;;24.10;90.80;;;;;;5021666;28;20857;-75
2023/07/16 10:26:17;;;;;;;5.90;3.80;;;23.90;90.60;;;;;;5050255;28;20470;-71
2023/07/16 10:28:44;;;;;;;7.40;4.23;;;23.90;91.10;;;;;;5031251;28;20556;-71
2023/07/16 10:31:19;;;;;;;8.20;3.77;;;23.80;90.60;;;;;;5042230;28;20437;-73
2023/07/16 10:33:56;;;;;;;5.87;3.90;;;24.10;90.60;;;;;;5039239;28;20521;-72
2023/07/16 10:36:24;;;;;;;5.77;3.33;;;24.50;90.30;;;;;;5037069;28;20524;-74
2023/07/16 10:38:52;;;;;;;10.83;4.33;;;24.60;90.50;;;;;;5035458;28;21872;-74
2023/07/16 10:41:19;;;;;;;8.00;4.23;;;25.10;90.10;;;;;;5044747;28;20509;-74
2023/07/16 10:43:46;;;;;;;6.30;4.03;;;25.60;89.20;;;;;;5034758;28;20481;-72
2023/07/16 10:46:16;;;;;;;4.43;3.73;;;25.50;87.30;;;;;;5041716;28;20526;-72
2023/07/16 10:48:48;;;;;;;9.70;4.33;;;25.10;87.30;;;;;;5041145;28;20924;-72
2023/07/16 10:51:16;;;;;;;7.77;3.87;;;24.60;88.60;;;;;;5032056;28;20544;-71
2023/07/16 10:53:45;;;;;;;5.50;3.97;;;24.50;89.00;;;;;;5038624;28;20576;-72
2023/07/16 10:56:12;;;;;;;7.03;3.50;;;24.60;88.40;;;;;;5041707;28;20491;-75
2023/07/16 10:58:40;;;;;;;4.70;3.77;;;24.80;88.80;;;;;;5044394;28;20529;-73
2023/07/16 11:01:09;;;;;;;4.53;3.20;;;24.80;88.40;;;;;;5042655;28;20534;-72
2023/07/16 11:03:36;;;;;;;10.70;3.43;;;25.10;88.40;;;;;;5043081;28;20569;-74
2023/07/16 11:06:07;;;;;;;8.73;3.90;;;24.80;87.90;;;;;;5042427;28;20461;-72
2023/07/16 11:08:34;;;;;;;10.13;4.27;;;24.70;88.20;;;;;;5039495;28;20466;-73
2023/07/16 11:11:41;;;;;;;7.30;3.90;;;24.30;89.20;;;;;;5040222;28;20537;-72
2023/07/16 11:14:10;;;;;;;13.20;4.17;;;24.40;89.80;;;;;;5036285;28;20480;-72
2023/07/16 11:16:38;;;;;;;7.00;3.80;;;24.30;88.90;;;;;;5034271;28;20486;-69
2023/07/16 11:19:06;;;;;;;8.60;3.60;;;24.20;89.10;;;;;;5038373;28;20955;-71
2023/07/16 11:21:46;;;;;;;6.13;3.77;;;24.20;89.90;;;;;;5032034;28;20457;-70
2023/07/16 11:24:16;;;;;;;6.93;3.77;;;24.20;90.30;;;;;;5035294;28;20516;-71
2023/07/16 11:26:51;;;;;;;5.37;3.50;;;24.10;90.00;;;;;;5038693;28;20443;-72
2023/07/16 11:29:19;;;;;;;4.97;2.97;;;24.30;90.20;;;;;;5043810;28;20821;-71
2023/07/16 11:31:50;;;;;;;7.87;3.60;;;24.50;90.20;;;;;;5042972;28;20450;-71
2023/07/16 11:34:17;;;;;;;4.47;2.87;;;24.50;89.30;;;;;;5039027;28;20464;-72
2023/07/16 11:36:44;;;;;;;7.50;3.73;;;24.60;88.80;;;;;;5037596;28;20534;-73
2023/07/16 11:39:12;;;;;;;5.03;3.20;;;24.50;88.60;;;;;;5045130;28;20458;-72
2023/07/16 11:41:39;;;;;;;4.87;3.00;;;24.40;89.60;;;;;;5039183;28;20447;-71
2023/07/16 11:44:09;;;;;;;5.20;3.17;;;24.30;89.50;;;;;;5040308;28;20515;-71
2023/07/16 11:46:37;;;;;;;3.63;3.13;;;24.40;89.30;;;;;;5037859;28;20471;-70
2023/07/16 11:49:04;;;;;;;7.13;4.00;;;24.30;89.00;;;;;;5045164;28;20632;-73
2023/07/16 11:51:31;;;;;;;6.23;3.50;;;24.30;90.00;;;;;;5034754;28;20442;-71
2023/07/16 11:53:58;;;;;;;7.13;3.20;;;24.40;89.60;;;;;;5034775;28;20550;-71
2023/07/16 11:56:25;;;;;;;10.17;3.67;;;24.60;89.40;;;;;;5033520;28;20462;-73
2023/07/16 11:58:52;;;;;;;4.87;3.57;;;24.60;89.10;;;;;;5038317;28;20445;-73
2023/07/16 12:01:19;;;;;;;6.47;3.50;;;24.60;89.30;;;;;;5038855;28;20481;-72
2023/07/16 12:03:48;;;;;;;6.70;3.33;;;24.60;90.00;;;;;;5035293;28;20483;-72
2023/07/16 12:06:15;;;;;;;4.10;3.30;;;24.40;88.70;;;;;;5039521;28;20473;-72
2023/07/16 12:08:42;;;;;;;5.63;3.67;;;24.50;90.20;;;;;;5033685;28;20483;-72
2023/07/16 12:11:09;;;;;;;3.17;2.70;;;24.80;89.80;;;;;;5034624;28;20481;-73
2023/07/16 12:13:36;;;;;;;10.77;3.53;;;24.50;89.20;;;;;;5038891;28;20498;-71
2023/07/16 12:16:04;;;;;;;5.20;4.20;;;24.60;89.80;;;;;;5040488;28;21177;-72
2023/07/16 12:18:31;;;;;;;4.70;3.20;;;24.50;89.50;;;;;;5045258;28;20850;-72
2023/07/16 12:21:00;;;;;;;5.13;3.33;;;24.60;90.30;;;;;;5039768;28;20919;-75
2023/07/16 12:23:26;;;;;;;7.97;3.80;;;24.60;89.90;;;;;;5030645;28;20901;-72
2023/07/16 12:25:54;;;;;;;11.80;4.47;;;24.70;89.50;;;;;;5038868;28;20882;-75
2023/07/16 12:28:21;;;;;;;5.27;3.13;;;24.60;90.10;;;;;;5032420;28;20497;-73
2023/07/16 12:30:48;;;;;;;5.50;4.00;;;24.80;90.00;;;;;;5037883;28;20525;-73
2023/07/16 12:33:15;;;;;;;6.87;3.07;;;24.70;89.80;;;;;;5034712;28;20998;-73
2023/07/16 12:35:43;;;;;;;7.83;3.97;;;24.50;89.80;;;;;;5032905;28;20584;-73
2023/07/16 12:38:11;;;;;;;6.63;3.63;;;24.70;90.10;;;;;;5045575;28;20946;-73
2023/07/16 12:40:40;;;;;;;4.03;3.60;;;24.50;89.80;;;;;;5039106;28;20493;-72
2023/07/16 12:43:07;;;;;;;7.60;4.03;;;24.40;90.00;;;;;;5046159;28;20466;-74
2023/07/16 12:45:34;;;;;;;6.80;3.90;;;24.60;90.10;;;;;;5039557;28;20428;-74
2023/07/16 12:48:01;;;;;;;6.23;3.70;;;24.80;90.10;;;;;;5042374;28;20474;-74
2023/07/16 12:50:29;;;;;;;4.37;3.10;;;24.80;89.70;;;;;;5039285;28;20579;-74